createdAt,value
2017-10-31T00:00:13.085Z,1000.26
2017-10-31T00:01:19.900Z,1000.27
2017-10-31T00:02:26.641Z,1000.25
2017-10-31T00:03:33.448Z,1000.27
2017-10-31T00:04:40.156Z,1000.24
2017-10-31T00:05:46.958Z,1000.25
2017-10-31T00:06:53.665Z,1000.23
2017-10-31T00:08:00.486Z,1000.27
2017-10-31T00:09:07.195Z,1000.24
2017-10-31T00:10:13.901Z,1000.21
2017-10-31T00:11:20.648Z,1000.23
2017-10-31T00:12:27.360Z,1000.22
2017-10-31T00:13:34.113Z,1000.22
2017-10-31T00:14:40.873Z,1000.16
2017-10-31T00:15:47.581Z,1000.22
2017-10-31T00:16:54.365Z,1000.18
2017-10-31T00:18:01.378Z,1000.21
2017-10-31T00:19:08.124Z,1000.20
2017-10-31T00:20:14.884Z,1000.20
2017-10-31T00:21:21.587Z,1000.15
2017-10-31T00:22:28.314Z,1000.18
2017-10-31T00:23:35.049Z,1000.12
2017-10-31T00:24:41.820Z,1000.14
2017-10-31T00:25:48.628Z,1000.14
2017-10-31T00:26:55.353Z,1000.12
2017-10-31T00:28:02.073Z,1000.13
2017-10-31T00:29:08.872Z,1000.14
2017-10-31T00:30:15.699Z,1000.12
2017-10-31T00:31:22.453Z,1000.15
2017-10-31T00:32:29.150Z,1000.09
2017-10-31T00:33:35.950Z,1000.14
2017-10-31T00:34:48.575Z,1000.11
2017-10-31T00:35:49.846Z,1000.19
2017-10-31T00:36:56.602Z,1000.25
2017-10-31T00:38:03.403Z,1000.17
2017-10-31T00:39:10.154Z,1000.17
2017-10-31T00:40:16.924Z,1000.24
2017-10-31T00:41:23.697Z,1000.21
2017-10-31T00:42:30.544Z,1000.25
2017-10-31T00:43:37.316Z,1000.22
2017-10-31T00:44:44.112Z,1000.16
2017-10-31T00:45:50.967Z,1000.17
2017-10-31T00:46:57.756Z,1000.23
2017-10-31T00:48:04.572Z,1000.16
2017-10-31T00:49:11.473Z,1000.18
2017-10-31T00:50:18.224Z,1000.12
2017-10-31T00:51:24.994Z,1000.10
2017-10-31T00:52:31.802Z,1000.11
2017-10-31T00:53:38.609Z,1000.12
2017-10-31T00:54:45.376Z,1000.08
2017-10-31T00:55:52.230Z,1000.12
2017-10-31T00:56:59.084Z,1000.15
2017-10-31T00:58:05.821Z,1000.08
2017-10-31T00:58:24.439Z,1000.04
2017-10-31T00:59:31.214Z,1000.14
2017-10-31T01:00:37.968Z,1000.10
2017-10-31T01:01:44.721Z,1000.07
2017-10-31T01:02:51.492Z,1000.02
2017-10-31T01:03:58.314Z,1000.08
2017-10-31T01:05:05.082Z,1000.06
2017-10-31T01:06:11.877Z,1000.09
2017-10-31T01:07:18.711Z,999.94
2017-10-31T01:08:25.455Z,1000.00
2017-10-31T01:09:32.249Z,999.95
2017-10-31T01:10:39.029Z,1000.01
2017-10-31T01:11:45.793Z,1000.06
2017-10-31T01:12:52.580Z,999.90
2017-10-31T01:13:59.356Z,1000.04
2017-10-31T01:15:06.209Z,999.98
2017-10-31T01:16:12.997Z,999.92
2017-10-31T01:17:19.743Z,999.98
2017-10-31T01:18:26.537Z,999.91
2017-10-31T01:19:33.324Z,999.86
2017-10-31T01:20:40.073Z,999.97
2017-10-31T01:21:46.832Z,999.93
2017-10-31T01:22:53.600Z,999.89
2017-10-31T01:24:00.404Z,999.89
2017-10-31T01:25:07.181Z,999.97
2017-10-31T01:26:13.940Z,999.95
2017-10-31T01:27:20.772Z,999.87
2017-10-31T01:28:27.534Z,999.94
2017-10-31T01:29:34.314Z,999.90
2017-10-31T01:30:41.053Z,999.92
2017-10-31T01:31:47.827Z,999.84
2017-10-31T01:32:54.611Z,999.86
2017-10-31T01:34:01.392Z,999.78
2017-10-31T01:35:08.270Z,999.88
2017-10-31T01:36:15.044Z,999.86
2017-10-31T01:37:21.832Z,999.86
2017-10-31T01:38:28.661Z,999.89
2017-10-31T01:39:35.424Z,999.85
2017-10-31T01:40:42.245Z,999.89
2017-10-31T01:41:49.089Z,999.86
2017-10-31T01:42:57.433Z,999.85
2017-10-31T01:44:02.727Z,999.90
2017-10-31T01:45:09.552Z,999.83
2017-10-31T01:46:16.326Z,999.76
2017-10-31T01:47:23.116Z,999.73
2017-10-31T01:48:29.939Z,999.80
2017-10-31T01:49:36.764Z,999.75
2017-10-31T01:50:43.564Z,999.68
2017-10-31T01:51:50.368Z,999.65
2017-10-31T01:52:57.123Z,999.71
2017-10-31T01:54:03.991Z,999.79
2017-10-31T01:55:10.837Z,999.75
2017-10-31T01:56:17.606Z,999.76
2017-10-31T01:57:24.414Z,999.76
2017-10-31T01:58:31.244Z,999.79
2017-10-31T01:59:37.985Z,999.77
2017-10-31T02:00:44.795Z,999.77
2017-10-31T02:01:51.641Z,999.69
2017-10-31T02:02:58.421Z,999.71
2017-10-31T02:04:05.238Z,999.73
2017-10-31T02:05:12.077Z,999.65
2017-10-31T02:06:18.856Z,999.65
2017-10-31T02:07:25.623Z,999.72
2017-10-31T02:08:32.476Z,999.72
2017-10-31T02:09:39.221Z,999.67
2017-10-31T02:10:46.138Z,999.69
2017-10-31T02:11:52.957Z,999.66
2017-10-31T02:12:59.726Z,999.72
2017-10-31T02:14:06.485Z,999.63
2017-10-31T02:15:13.354Z,999.68
2017-10-31T02:16:20.109Z,999.66
2017-10-31T02:17:26.883Z,999.67
2017-10-31T02:18:33.612Z,999.70
2017-10-31T02:19:40.504Z,999.65
2017-10-31T02:20:47.361Z,999.64
2017-10-31T02:21:54.227Z,999.65
2017-10-31T02:23:01.059Z,999.62
2017-10-31T02:24:08.046Z,999.71
2017-10-31T02:25:15.065Z,999.71
2017-10-31T02:26:21.969Z,999.66
2017-10-31T02:27:28.846Z,999.63
2017-10-31T02:28:35.676Z,999.62
2017-10-31T02:29:42.600Z,999.69
2017-10-31T02:30:49.428Z,999.68
2017-10-31T02:31:56.268Z,999.68
2017-10-31T02:33:03.108Z,999.64
2017-10-31T02:34:09.930Z,999.65
2017-10-31T02:35:16.792Z,999.63
2017-10-31T02:36:23.600Z,999.59
2017-10-31T02:37:30.453Z,999.62
2017-10-31T02:38:37.270Z,999.67
2017-10-31T02:39:44.128Z,999.66
2017-10-31T02:40:50.950Z,999.68
2017-10-31T02:41:57.817Z,999.68
2017-10-31T02:43:04.675Z,999.71
2017-10-31T02:44:11.514Z,999.70
2017-10-31T02:45:18.586Z,999.71
2017-10-31T02:46:25.712Z,999.68
2017-10-31T02:47:32.730Z,999.71
2017-10-31T02:48:39.555Z,999.65
2017-10-31T02:49:46.452Z,999.75
2017-10-31T02:50:53.279Z,999.72
2017-10-31T02:52:00.106Z,999.74
2017-10-31T02:53:06.995Z,999.69
2017-10-31T02:54:13.821Z,999.74
2017-10-31T02:55:20.717Z,999.66
2017-10-31T02:56:27.592Z,999.73
2017-10-31T02:57:34.495Z,999.65
2017-10-31T02:58:41.365Z,999.70
2017-10-31T02:59:48.249Z,999.64
2017-10-31T03:00:55.107Z,999.58
2017-10-31T03:02:01.988Z,999.61
2017-10-31T03:03:08.933Z,999.69
2017-10-31T03:04:15.772Z,999.64
2017-10-31T03:05:22.654Z,999.65
2017-10-31T03:06:29.492Z,999.67
2017-10-31T03:07:36.377Z,999.67
2017-10-31T03:08:43.293Z,999.63
2017-10-31T03:09:50.156Z,999.63
2017-10-31T03:10:57.055Z,999.73
2017-10-31T03:12:04.257Z,999.69
2017-10-31T03:13:10.661Z,999.68
2017-10-31T03:14:17.482Z,999.66
2017-10-31T03:15:24.270Z,999.63
2017-10-31T03:16:31.085Z,999.67
2017-10-31T03:17:37.872Z,999.70
2017-10-31T03:18:44.690Z,999.65
2017-10-31T03:19:51.646Z,999.63
2017-10-31T03:20:58.496Z,999.66
2017-10-31T03:22:05.421Z,999.74
2017-10-31T03:23:12.328Z,999.66
2017-10-31T03:24:19.221Z,999.70
2017-10-31T03:25:26.125Z,999.64
2017-10-31T03:26:33.413Z,999.80
2017-10-31T03:27:40.167Z,999.67
2017-10-31T03:28:47.004Z,999.72
2017-10-31T03:29:53.865Z,999.73
2017-10-31T03:31:00.746Z,999.69
2017-10-31T03:32:07.644Z,999.70
2017-10-31T03:33:14.471Z,999.72
2017-10-31T03:34:21.284Z,999.74
2017-10-31T03:35:28.152Z,999.79
2017-10-31T03:36:35.063Z,999.75
2017-10-31T03:37:41.921Z,999.70
2017-10-31T03:38:48.805Z,999.69
2017-10-31T03:39:55.678Z,999.69
2017-10-31T03:41:02.526Z,999.69
2017-10-31T03:42:09.374Z,999.63
2017-10-31T03:43:16.274Z,999.69
2017-10-31T03:44:23.337Z,999.67
2017-10-31T03:45:30.113Z,999.66
2017-10-31T03:46:36.995Z,999.66
2017-10-31T03:47:43.825Z,999.71
2017-10-31T03:48:50.714Z,999.72
2017-10-31T03:49:57.680Z,999.79
2017-10-31T03:51:04.540Z,999.77
2017-10-31T03:52:11.319Z,999.72
2017-10-31T03:53:18.214Z,999.79
2017-10-31T03:54:25.080Z,999.73
2017-10-31T03:55:31.989Z,999.71
2017-10-31T03:56:38.868Z,999.76
2017-10-31T03:57:45.752Z,999.75
2017-10-31T03:58:52.620Z,999.76
2017-10-31T03:59:59.546Z,999.85
2017-10-31T04:01:06.402Z,999.84
2017-10-31T04:02:13.306Z,999.83
2017-10-31T04:03:20.184Z,999.84
2017-10-31T04:04:27.094Z,999.82
2017-10-31T04:05:33.917Z,999.83
2017-10-31T04:06:40.684Z,999.82
2017-10-31T04:07:47.490Z,999.82
2017-10-31T04:08:54.418Z,999.77
2017-10-31T04:10:01.272Z,999.77
2017-10-31T04:11:08.152Z,999.77
2017-10-31T04:12:15.032Z,999.83
2017-10-31T04:13:21.901Z,999.78
2017-10-31T04:14:28.817Z,999.84
2017-10-31T04:15:35.640Z,999.80
2017-10-31T04:16:42.605Z,999.88
2017-10-31T04:17:49.395Z,999.88
2017-10-31T04:18:56.163Z,999.80
2017-10-31T04:20:02.991Z,999.79
2017-10-31T04:21:09.884Z,999.85
2017-10-31T04:22:16.621Z,999.79
2017-10-31T04:23:23.433Z,999.76
2017-10-31T04:24:30.216Z,999.73
2017-10-31T04:25:37.004Z,999.74
2017-10-31T04:26:43.809Z,999.77
2017-10-31T04:27:50.577Z,999.78
2017-10-31T04:28:57.361Z,999.72
2017-10-31T04:30:04.232Z,999.67
2017-10-31T04:31:11.046Z,999.72
2017-10-31T04:32:17.817Z,999.71
2017-10-31T04:33:24.638Z,999.62
2017-10-31T04:34:31.428Z,999.62
2017-10-31T04:35:38.192Z,999.65
2017-10-31T04:36:45.049Z,999.65
2017-10-31T04:37:51.816Z,999.65
2017-10-31T04:38:58.861Z,999.48
2017-10-31T04:40:05.640Z,999.57
2017-10-31T04:41:12.449Z,999.65
2017-10-31T04:42:19.284Z,999.59
2017-10-31T04:43:26.085Z,999.59
2017-10-31T04:44:32.869Z,999.64
2017-10-31T04:45:39.729Z,999.66
2017-10-31T04:46:46.529Z,999.66
2017-10-31T04:47:53.345Z,999.63
2017-10-31T04:49:00.166Z,999.58
2017-10-31T04:50:06.952Z,999.61
2017-10-31T04:51:13.776Z,999.58
2017-10-31T04:52:20.569Z,999.63
2017-10-31T04:53:27.356Z,999.63
2017-10-31T04:54:34.172Z,999.57
2017-10-31T04:55:40.988Z,999.61
2017-10-31T04:56:47.840Z,999.57
2017-10-31T04:57:54.824Z,999.57
2017-10-31T04:59:01.714Z,999.56
2017-10-31T05:00:08.571Z,999.56
2017-10-31T05:01:15.517Z,999.59
2017-10-31T05:02:22.332Z,999.67
2017-10-31T05:03:29.141Z,999.63
2017-10-31T05:04:35.920Z,999.59
2017-10-31T05:05:42.765Z,999.58
2017-10-31T05:06:49.524Z,999.52
2017-10-31T05:07:56.272Z,999.55
2017-10-31T05:09:03.041Z,999.57
2017-10-31T05:10:09.929Z,999.60
2017-10-31T05:11:16.688Z,999.51
2017-10-31T05:12:23.451Z,999.51
2017-10-31T05:13:30.267Z,999.53
2017-10-31T05:14:37.002Z,999.46
2017-10-31T05:15:44.041Z,999.49
2017-10-31T05:16:50.817Z,999.51
2017-10-31T05:17:57.640Z,999.49
2017-10-31T05:19:04.481Z,999.44
2017-10-31T05:20:11.332Z,999.43
2017-10-31T05:21:18.100Z,999.55
2017-10-31T05:22:24.918Z,999.43
2017-10-31T05:23:31.700Z,999.45
2017-10-31T05:24:38.461Z,999.38
2017-10-31T05:25:45.353Z,999.42
2017-10-31T05:26:52.173Z,999.42
2017-10-31T05:27:58.981Z,999.54
2017-10-31T05:29:05.796Z,999.44
2017-10-31T05:30:12.612Z,999.37
2017-10-31T05:31:19.464Z,999.43
2017-10-31T05:32:26.211Z,999.36
2017-10-31T05:33:32.990Z,999.39
2017-10-31T05:34:39.863Z,999.44
2017-10-31T05:35:46.613Z,999.37
2017-10-31T05:36:53.436Z,999.37
2017-10-31T05:38:00.244Z,999.37
2017-10-31T05:39:07.249Z,999.31
2017-10-31T05:40:14.174Z,999.33
2017-10-31T05:41:20.948Z,999.42
2017-10-31T05:42:27.813Z,999.38
2017-10-31T05:43:34.596Z,999.39
2017-10-31T05:44:41.446Z,999.38
2017-10-31T05:45:48.242Z,999.40
2017-10-31T05:46:55.018Z,999.44
2017-10-31T05:48:01.805Z,999.38
2017-10-31T05:49:08.656Z,999.38
2017-10-31T05:50:15.421Z,999.38
2017-10-31T05:51:22.197Z,999.46
2017-10-31T05:52:28.954Z,999.49
2017-10-31T05:53:35.719Z,999.44
2017-10-31T05:54:42.514Z,999.53
2017-10-31T05:55:49.318Z,999.45
2017-10-31T05:56:56.117Z,999.48
2017-10-31T05:58:02.901Z,999.49
2017-10-31T05:59:09.680Z,999.46
2017-10-31T06:00:16.584Z,999.45
2017-10-31T06:01:23.373Z,999.48
2017-10-31T06:02:30.148Z,999.51
2017-10-31T06:03:36.969Z,999.55
2017-10-31T06:04:43.760Z,999.57
2017-10-31T06:05:50.554Z,999.57
2017-10-31T06:06:57.473Z,999.62
2017-10-31T06:08:04.305Z,999.69
2017-10-31T06:09:11.169Z,999.71
2017-10-31T06:10:17.941Z,999.68
2017-10-31T06:11:24.741Z,999.65
2017-10-31T06:12:31.564Z,999.64
2017-10-31T06:13:38.409Z,999.67
2017-10-31T06:14:45.153Z,999.61
2017-10-31T06:15:51.989Z,999.67
2017-10-31T06:16:58.783Z,999.60
2017-10-31T06:18:05.566Z,999.67
2017-10-31T06:19:12.508Z,999.73
2017-10-31T06:20:19.281Z,999.68
2017-10-31T06:21:26.198Z,999.69
2017-10-31T06:22:33.040Z,999.77
2017-10-31T06:23:39.964Z,999.73
2017-10-31T06:24:47.267Z,999.75
2017-10-31T06:25:55.136Z,999.74
2017-10-31T06:27:02.821Z,999.74
2017-10-31T06:28:09.866Z,999.82
2017-10-31T06:29:16.717Z,999.76
2017-10-31T06:30:23.646Z,999.78
2017-10-31T06:31:32.847Z,999.81
2017-10-31T06:32:39.657Z,999.78
2017-10-31T06:33:46.457Z,999.78
2017-10-31T06:34:53.273Z,999.79
2017-10-31T06:36:00.181Z,999.74
2017-10-31T06:37:06.969Z,999.72
2017-10-31T06:38:13.818Z,999.75
2017-10-31T06:39:20.601Z,999.75
2017-10-31T06:40:27.402Z,999.72
2017-10-31T06:41:34.234Z,999.77
2017-10-31T06:42:41.040Z,999.72
2017-10-31T06:43:47.881Z,999.66
2017-10-31T06:44:54.670Z,999.75
2017-10-31T06:46:01.435Z,999.61
2017-10-31T06:47:09.056Z,999.66
2017-10-31T06:48:18.113Z,999.68
2017-10-31T06:49:22.397Z,999.63
2017-10-31T06:50:29.157Z,999.66
2017-10-31T06:51:35.965Z,999.60
2017-10-31T06:52:42.753Z,999.71
2017-10-31T06:53:49.561Z,999.65
2017-10-31T06:54:56.380Z,999.74
2017-10-31T06:56:03.159Z,999.78
2017-10-31T06:57:09.924Z,999.72
2017-10-31T06:58:16.791Z,999.72
2017-10-31T06:59:23.504Z,999.75
2017-10-31T07:00:30.296Z,999.71
2017-10-31T07:01:37.069Z,999.76
2017-10-31T07:02:43.869Z,999.76
2017-10-31T07:03:50.657Z,999.77
2017-10-31T07:04:57.498Z,999.73
2017-10-31T07:06:04.273Z,999.78
2017-10-31T07:07:11.089Z,999.76
2017-10-31T07:08:17.881Z,999.72
2017-10-31T07:09:24.825Z,999.75
2017-10-31T07:10:31.610Z,999.73
2017-10-31T07:11:38.506Z,999.72
2017-10-31T07:12:45.300Z,999.73
2017-10-31T07:13:52.101Z,999.75
2017-10-31T07:14:58.933Z,999.78
2017-10-31T07:16:05.747Z,999.80
2017-10-31T07:17:12.558Z,999.88
2017-10-31T07:18:19.387Z,999.77
2017-10-31T07:19:26.297Z,999.77
2017-10-31T07:20:33.120Z,999.84
2017-10-31T07:21:39.903Z,999.88
2017-10-31T07:22:46.805Z,999.82
2017-10-31T07:23:53.581Z,999.77
2017-10-31T07:25:00.373Z,999.78
2017-10-31T07:26:07.273Z,999.78
2017-10-31T07:27:14.088Z,999.79
2017-10-31T07:28:21.100Z,999.77
2017-10-31T07:29:27.899Z,999.84
2017-10-31T07:30:34.697Z,999.76
2017-10-31T07:31:41.484Z,999.82
2017-10-31T07:32:48.294Z,999.76
2017-10-31T07:33:55.077Z,999.73
2017-10-31T07:35:01.993Z,999.70
2017-10-31T07:36:08.899Z,999.74
2017-10-31T07:37:15.724Z,999.70
2017-10-31T07:38:22.505Z,999.77
2017-10-31T07:39:29.449Z,999.82
2017-10-31T07:40:36.282Z,999.83
2017-10-31T07:41:43.061Z,999.79
2017-10-31T07:42:49.888Z,999.86
2017-10-31T07:43:56.778Z,999.85
2017-10-31T07:45:03.650Z,999.82
2017-10-31T07:46:10.480Z,999.91
2017-10-31T07:47:17.324Z,999.90
2017-10-31T07:48:24.089Z,999.84
2017-10-31T07:49:30.927Z,999.89
2017-10-31T07:50:37.705Z,999.86
2017-10-31T07:51:44.522Z,999.87
2017-10-31T07:52:51.460Z,999.84
2017-10-31T07:53:58.296Z,999.89
2017-10-31T07:55:05.458Z,999.81
2017-10-31T07:56:12.561Z,999.87
2017-10-31T07:57:19.337Z,999.83
2017-10-31T07:58:26.148Z,999.85
2017-10-31T07:59:32.950Z,999.92
2017-10-31T08:00:39.740Z,999.88
2017-10-31T08:01:46.612Z,1000.01
2017-10-31T08:02:53.399Z,999.94
2017-10-31T08:04:00.209Z,1000.02
2017-10-31T08:05:07.278Z,999.93
2017-10-31T08:06:14.374Z,1000.00
2017-10-31T08:07:21.193Z,999.98
2017-10-31T08:08:27.960Z,999.93
2017-10-31T08:09:35.118Z,999.89
2017-10-31T08:10:41.605Z,999.93
2017-10-31T08:11:48.532Z,999.90
2017-10-31T08:12:55.322Z,999.87
2017-10-31T08:14:02.277Z,999.90
2017-10-31T08:15:09.184Z,999.92
2017-10-31T08:16:16.037Z,999.88
2017-10-31T08:17:22.930Z,999.90
2017-10-31T08:18:29.810Z,999.92
2017-10-31T08:19:36.625Z,999.84
2017-10-31T08:20:43.480Z,999.90
2017-10-31T08:21:50.264Z,999.87
2017-10-31T08:22:57.298Z,999.84
2017-10-31T08:24:04.172Z,999.87
2017-10-31T08:25:10.969Z,999.81
2017-10-31T08:26:17.773Z,999.83
2017-10-31T08:27:24.688Z,999.93
2017-10-31T08:28:31.588Z,999.93
2017-10-31T08:29:38.361Z,999.95
2017-10-31T08:30:45.217Z,999.98
2017-10-31T08:31:51.984Z,999.99
2017-10-31T08:32:59.109Z,999.97
2017-10-31T08:34:05.890Z,999.90
2017-10-31T08:35:12.704Z,999.91
2017-10-31T08:36:19.508Z,1000.00
2017-10-31T08:37:26.312Z,999.95
2017-10-31T08:38:33.220Z,999.97
2017-10-31T08:39:40.006Z,999.99
2017-10-31T08:40:46.789Z,999.98
2017-10-31T08:41:53.713Z,1000.03
2017-10-31T08:43:00.565Z,1000.00
2017-10-31T08:44:07.476Z,999.98
2017-10-31T08:45:14.293Z,999.90
2017-10-31T08:46:21.069Z,999.95
2017-10-31T08:47:27.905Z,999.96
2017-10-31T08:48:34.736Z,999.98
2017-10-31T08:49:41.523Z,999.93
2017-10-31T08:50:48.309Z,999.95
2017-10-31T08:51:55.082Z,1000.01
2017-10-31T08:53:01.857Z,999.99
2017-10-31T08:54:08.718Z,1000.06
2017-10-31T08:55:15.464Z,1000.05
2017-10-31T08:56:22.284Z,999.96
2017-10-31T08:57:29.286Z,1000.07
2017-10-31T08:58:36.143Z,1000.07
2017-10-31T08:59:42.910Z,1000.02
2017-10-31T09:00:49.673Z,999.96
2017-10-31T09:01:56.453Z,1000.04
2017-10-31T09:03:03.354Z,1000.08
2017-10-31T09:04:10.219Z,999.99
2017-10-31T09:05:17.125Z,1000.03
2017-10-31T09:06:23.878Z,1000.05
2017-10-31T09:07:30.697Z,999.96
2017-10-31T09:08:37.529Z,1000.01
2017-10-31T09:09:44.329Z,999.94
2017-10-31T09:10:51.430Z,999.96
2017-10-31T09:11:58.209Z,999.92
2017-10-31T09:13:05.109Z,999.87
2017-10-31T09:14:11.860Z,999.78
2017-10-31T09:15:18.733Z,999.84
2017-10-31T09:16:25.885Z,999.75
2017-10-31T09:17:32.685Z,999.74
2017-10-31T09:18:39.467Z,999.78
2017-10-31T09:19:46.316Z,999.73
2017-10-31T09:20:53.128Z,999.67
2017-10-31T09:21:59.864Z,999.68
2017-10-31T09:23:06.649Z,999.70
2017-10-31T09:24:13.385Z,999.66
2017-10-31T09:25:20.257Z,999.62
2017-10-31T09:26:27.044Z,999.64
2017-10-31T09:27:33.816Z,999.63
2017-10-31T09:28:40.657Z,999.66
2017-10-31T09:29:47.440Z,999.71
2017-10-31T09:30:54.243Z,999.69
2017-10-31T09:32:01.066Z,999.65
2017-10-31T09:33:07.857Z,999.77
2017-10-31T09:34:14.624Z,999.67
2017-10-31T09:35:21.465Z,999.65
2017-10-31T09:36:28.284Z,999.64
2017-10-31T09:37:35.135Z,999.71
2017-10-31T09:38:42.100Z,999.76
2017-10-31T09:39:48.989Z,999.76
2017-10-31T09:40:55.837Z,999.82
2017-10-31T09:42:02.626Z,999.80
2017-10-31T09:43:09.418Z,999.85
2017-10-31T09:44:16.229Z,999.82
2017-10-31T09:45:23.024Z,999.90
2017-10-31T09:46:29.862Z,999.92
2017-10-31T09:47:36.764Z,999.93
2017-10-31T09:48:43.645Z,999.97
2017-10-31T09:49:50.412Z,999.87
2017-10-31T09:50:57.213Z,999.94
2017-10-31T09:52:04.065Z,999.95
2017-10-31T09:53:10.888Z,999.89
2017-10-31T09:54:17.642Z,999.88
2017-10-31T09:55:24.448Z,999.89
2017-10-31T09:56:31.272Z,999.94
2017-10-31T09:57:38.059Z,999.84
2017-10-31T09:58:44.888Z,999.82
2017-10-31T09:59:51.669Z,999.88
2017-10-31T10:00:58.450Z,999.85
2017-10-31T10:02:05.349Z,999.84
2017-10-31T10:03:12.129Z,999.82
2017-10-31T10:04:18.928Z,999.81
2017-10-31T10:05:25.771Z,999.84
2017-10-31T10:06:32.549Z,999.72
2017-10-31T10:07:39.350Z,999.79
2017-10-31T10:08:46.193Z,999.79
2017-10-31T10:09:52.990Z,999.81
2017-10-31T10:10:59.791Z,999.73
2017-10-31T10:12:06.581Z,999.77
2017-10-31T10:13:13.388Z,999.77
2017-10-31T10:14:20.219Z,999.74
2017-10-31T10:15:27.020Z,999.71
2017-10-31T10:16:33.803Z,999.76
2017-10-31T10:17:40.637Z,999.72
2017-10-31T10:18:47.458Z,999.76
2017-10-31T10:19:54.237Z,999.70
2017-10-31T10:21:01.020Z,999.73
2017-10-31T10:22:07.864Z,999.75
2017-10-31T10:23:14.756Z,999.72
2017-10-31T10:24:21.656Z,999.74
2017-10-31T10:25:28.417Z,999.75
2017-10-31T10:26:35.177Z,999.74
2017-10-31T10:27:41.925Z,999.77
2017-10-31T10:28:48.747Z,999.74
2017-10-31T10:29:55.526Z,999.77
2017-10-31T10:31:02.338Z,999.71
2017-10-31T10:32:09.140Z,999.70
2017-10-31T10:33:15.921Z,999.69
2017-10-31T10:34:22.733Z,999.65
2017-10-31T10:35:29.588Z,999.70
2017-10-31T10:36:36.367Z,999.67
2017-10-31T10:37:43.157Z,999.64
2017-10-31T10:38:49.988Z,999.54
2017-10-31T10:39:56.896Z,999.59
2017-10-31T10:41:03.737Z,999.55
2017-10-31T10:42:10.540Z,999.46
2017-10-31T10:43:17.325Z,999.51
2017-10-31T10:44:24.301Z,999.48
2017-10-31T10:45:31.102Z,999.39
2017-10-31T10:46:37.937Z,999.38
2017-10-31T10:47:44.681Z,999.39
2017-10-31T10:48:51.512Z,999.35
2017-10-31T10:49:58.354Z,999.43
2017-10-31T10:51:05.124Z,999.30
2017-10-31T10:52:11.924Z,999.42
2017-10-31T10:53:18.796Z,999.37
2017-10-31T10:54:25.656Z,999.29
2017-10-31T10:55:32.414Z,999.26
2017-10-31T10:56:39.225Z,999.29
2017-10-31T10:57:46.085Z,999.24
2017-10-31T10:58:52.988Z,999.29
2017-10-31T10:59:59.774Z,999.20
2017-10-31T11:01:06.636Z,999.22
2017-10-31T11:02:13.523Z,999.17
2017-10-31T11:03:20.312Z,999.21
2017-10-31T11:04:27.057Z,999.16
2017-10-31T11:05:34.609Z,999.06
2017-10-31T11:06:40.948Z,999.12
2017-10-31T11:07:47.726Z,999.05
2017-10-31T11:08:54.500Z,999.02
2017-10-31T11:10:01.377Z,999.02
2017-10-31T11:11:08.190Z,998.99
2017-10-31T11:12:14.952Z,998.98
2017-10-31T11:13:21.777Z,998.93
2017-10-31T11:14:28.557Z,998.90
2017-10-31T11:15:35.340Z,998.91
2017-10-31T11:16:42.270Z,998.91
2017-10-31T11:17:49.051Z,998.96
2017-10-31T11:18:55.886Z,998.90
2017-10-31T11:20:02.649Z,998.93
2017-10-31T11:21:09.513Z,998.91
2017-10-31T11:22:16.345Z,998.92
2017-10-31T11:23:23.120Z,998.76
2017-10-31T11:24:30.144Z,998.77
2017-10-31T11:25:36.946Z,998.83
2017-10-31T11:26:43.707Z,998.75
2017-10-31T11:27:50.541Z,998.78
2017-10-31T11:29:02.462Z,998.67
2017-10-31T11:30:04.233Z,998.71
2017-10-31T11:31:11.069Z,998.68
2017-10-31T11:32:17.888Z,998.68
2017-10-31T11:33:24.630Z,998.69
2017-10-31T11:34:31.470Z,998.63
2017-10-31T11:35:38.268Z,998.66
2017-10-31T11:36:45.163Z,998.61
2017-10-31T11:37:52.265Z,998.63
2017-10-31T11:38:59.060Z,998.61
2017-10-31T11:40:05.857Z,998.65
2017-10-31T11:41:12.608Z,998.60
2017-10-31T11:42:19.501Z,998.67
2017-10-31T11:43:26.333Z,998.64
2017-10-31T11:44:33.140Z,998.63
2017-10-31T11:45:39.981Z,998.58
2017-10-31T11:46:46.782Z,998.55
2017-10-31T11:47:53.533Z,998.61
2017-10-31T11:49:00.381Z,998.62
2017-10-31T11:50:07.169Z,998.62
2017-10-31T11:51:13.920Z,998.62
2017-10-31T11:52:20.741Z,998.57
2017-10-31T11:53:27.580Z,998.62
2017-10-31T11:54:34.372Z,998.54
2017-10-31T11:55:41.151Z,998.50
2017-10-31T11:56:47.953Z,998.58
2017-10-31T11:57:54.712Z,998.47
2017-10-31T11:59:01.972Z,998.56
2017-10-31T12:00:08.284Z,998.50
2017-10-31T12:01:15.078Z,998.47
2017-10-31T12:02:21.950Z,998.43
2017-10-31T12:03:28.717Z,998.46
2017-10-31T12:04:35.511Z,998.41
2017-10-31T12:05:42.340Z,998.46
2017-10-31T12:06:49.139Z,998.45
2017-10-31T12:07:55.930Z,998.40
2017-10-31T12:09:02.745Z,998.37
2017-10-31T12:10:09.604Z,998.32
2017-10-31T12:11:16.408Z,998.35
2017-10-31T12:12:23.305Z,998.33
2017-10-31T12:13:30.183Z,998.27
2017-10-31T12:14:37.072Z,998.28
2017-10-31T12:15:43.896Z,998.29
2017-10-31T12:16:50.717Z,998.23
2017-10-31T12:17:57.510Z,998.25
2017-10-31T12:19:04.305Z,998.25
2017-10-31T12:20:11.206Z,998.22
2017-10-31T12:21:18.075Z,998.23
2017-10-31T12:22:24.944Z,998.20
2017-10-31T12:23:31.875Z,998.23
2017-10-31T12:24:38.752Z,998.21
2017-10-31T12:25:45.649Z,998.18
2017-10-31T12:26:52.541Z,998.22
2017-10-31T12:27:59.389Z,998.18
2017-10-31T12:29:06.281Z,998.16
2017-10-31T12:30:14.067Z,998.22
2017-10-31T12:31:20.053Z,998.18
2017-10-31T12:32:26.982Z,998.15
2017-10-31T12:33:33.813Z,998.17
2017-10-31T12:34:40.680Z,998.08
2017-10-31T12:35:47.642Z,998.14
2017-10-31T12:36:54.495Z,998.06
2017-10-31T12:38:01.326Z,998.11
2017-10-31T12:39:08.117Z,998.08
2017-10-31T12:40:14.900Z,998.08
2017-10-31T12:41:21.740Z,998.06
2017-10-31T12:42:28.533Z,998.01
2017-10-31T12:43:35.414Z,998.07
2017-10-31T12:44:42.200Z,998.01
2017-10-31T12:45:49.020Z,998.08
2017-10-31T12:46:55.793Z,998.08
2017-10-31T12:48:02.565Z,998.00
2017-10-31T12:49:09.373Z,997.93
2017-10-31T12:50:16.177Z,997.94
2017-10-31T12:51:22.973Z,997.94
2017-10-31T12:52:29.780Z,997.89
2017-10-31T12:53:36.738Z,997.93
2017-10-31T12:54:43.720Z,997.93
2017-10-31T12:55:50.529Z,997.92
2017-10-31T12:56:57.510Z,997.88
2017-10-31T12:58:04.238Z,997.83
2017-10-31T12:59:11.021Z,997.82
2017-10-31T13:00:17.892Z,997.84
2017-10-31T13:01:24.776Z,997.89
2017-10-31T13:02:31.688Z,997.83
2017-10-31T13:03:38.477Z,997.85
2017-10-31T13:04:45.272Z,997.78
2017-10-31T13:05:52.101Z,997.87
2017-10-31T13:06:59.006Z,997.89
2017-10-31T13:08:05.876Z,997.80
2017-10-31T13:09:12.687Z,997.74
2017-10-31T13:10:19.489Z,997.61
2017-10-31T13:11:26.277Z,997.71
2017-10-31T13:12:33.108Z,997.70
2017-10-31T13:13:39.851Z,997.70
2017-10-31T13:14:46.661Z,997.66
2017-10-31T13:15:53.436Z,997.79
2017-10-31T13:17:00.234Z,997.76
2017-10-31T13:18:07.117Z,997.85
2017-10-31T13:19:13.888Z,997.71
2017-10-31T13:20:20.657Z,997.81
2017-10-31T13:21:27.480Z,997.81
2017-10-31T13:22:34.233Z,997.82
2017-10-31T13:23:41.045Z,997.77
2017-10-31T13:24:47.873Z,997.78
2017-10-31T13:25:54.671Z,997.82
2017-10-31T13:27:01.469Z,997.73
2017-10-31T13:28:08.522Z,997.79
2017-10-31T13:29:15.650Z,997.80
2017-10-31T13:30:22.716Z,997.78
2017-10-31T13:31:29.780Z,997.66
2017-10-31T13:32:36.889Z,997.72
2017-10-31T13:33:44.267Z,997.70
2017-10-31T13:34:50.824Z,997.79
2017-10-31T13:35:57.974Z,997.71
2017-10-31T13:37:04.716Z,997.72
2017-10-31T13:38:11.768Z,997.74
2017-10-31T13:39:18.484Z,997.73
2017-10-31T13:40:25.577Z,997.65
2017-10-31T13:41:32.253Z,997.63
2017-10-31T13:42:39.372Z,997.68
2017-10-31T13:43:46.450Z,997.68
2017-10-31T13:44:53.324Z,997.64
2017-10-31T13:46:00.117Z,997.62
2017-10-31T13:47:06.945Z,997.65
2017-10-31T13:48:13.922Z,997.67
2017-10-31T13:49:20.659Z,997.63